Latest Weather Observations for Leinster

IDW60801

Issued at 6:02 pm WST Thursday 28 May 2015 (issued every 30 minutes, with the page automatically refreshed every 10 minutes)

About weather observations | Map of weather stations | Latest weather observations for WA | Other Formats
Station Details ID: 012314 Name: LEINSTER AERO Lat: -27.84 Lon: 120.70 Height: 497.0 m
Data from the previous 72 hours. | See also: Recent months at Leinster
Date/Time
WST
Temp
°C
App
Temp
°C
Dew
Point
Rel
Hum
%
Delta-T
°C
Wind Press
QNH
hPa
Press
MSL
hPa
Rain
since 9 am
mm
Dir
 
Spd
km/h
Gust
km/h
Spd
kts
Gust
kts
28/06:00pm 15.9 15.0 13.6 86 1.3 ENE 11 13 6 7 - - -
28/05:30pm 16.8 15.9 13.7 82 1.8 E 11 15 6 8 - - -
28/05:00pm 17.7 16.3 13.4 76 2.5 ENE 13 19 7 10 - - -
28/04:30pm 18.4 16.7 13.7 74 2.7 ENE 15 20 8 11 - - -
28/04:00pm 18.8 17.6 14.1 74 2.8 ENE 13 17 7 9 - - -
28/03:30pm 18.8 17.7 14.3 75 2.7 ENE 13 19 7 10 - - -
28/03:00pm 18.8 17.8 14.7 77 2.4 ENE 13 20 7 11 - - -
28/02:30pm 18.4 17.7 14.3 77 2.4 ENE 11 17 6 9 - - -
28/02:00pm 17.5 17.3 14.8 84 1.6 ENE 9 13 5 7 - - -
28/01:30pm 17.6 17.0 14.5 82 1.8 ENE 11 17 6 9 - - -
28/01:00pm 17.1 16.6 14.9 87 1.3 E 11 19 6 10 - - -
28/12:42pm 16.7 16.7 15.2 91 0.9 E 9 15 5 8 - - -
28/12:30pm 16.7 16.4 15.4 92 0.8 ENE 11 15 6 8 - - -
28/12:27pm 16.4 16.0 15.1 92 0.8 ENE 11 15 6 8 - - -
28/12:00pm 16.1 16.0 15.0 93 0.6 E 9 13 5 7 - - -
28/11:30am 15.5 15.1 15.2 98 0.2 SE 11 13 6 7 - - -
28/11:00am 15.0 15.2 14.7 98 0.2 SE 7 9 4 5 - - -
28/10:59am 15.1 15.3 14.8 98 0.2 SSE 7 9 4 5 - - -
28/10:30am 14.6 14.3 14.3 98 0.2 S 9 13 5 7 - - -
28/10:00am 14.7 14.1 14.5 99 0.1 SE 11 15 6 8 - - -
28/09:30am 14.2 13.4 14.0 99 0.1 SSE 11 17 6 9 - - -
28/09:18am 14.0 13.1 13.8 99 0.1 SSE 11 15 6 8 - - -
28/09:02am 13.8 12.9 13.6 99 0.1 SE 11 13 6 7 - - -
28/09:00am 13.8 12.9 13.6 99 0.1 SE 11 15 6 8 - - -
28/08:56am 13.9 12.6 13.7 99 0.1 SE 13 15 7 8 - - -
28/08:30am 13.5 13.2 13.3 99 0.1 SSW 7 11 4 6 - - -
28/08:28am 13.5 13.2 13.3 99 0.1 S 7 15 4 8 - - -
28/08:00am 13.3 12.6 13.1 99 0.1 SSE 9 13 5 7 - - -
28/07:30am 13.1 11.5 12.9 99 0.1 SE 13 19 7 10 - - -
28/07:00am 12.8 11.5 12.6 99 0.1 S 11 15 6 8 - - -
28/06:30am 13.0 12.2 12.8 99 0.1 SSE 9 13 5 7 - - -
28/06:23am 12.9 12.0 12.7 99 0.1 SSE 9 13 5 7 - - -
28/06:19am 12.9 12.0 12.7 99 0.1 SSE 9 13 5 7 - - -
28/06:16am 12.9 12.0 12.7 99 0.1 SSE 9 11 5 6 - - -
28/06:00am 12.8 12.3 12.6 99 0.1 SE 7 9 4 5 - - -
28/05:30am 12.8 12.5 12.6 99 0.1 S 6 7 3 4 - - -
28/05:00am 12.6 12.2 12.4 99 0.1 SSE 6 7 3 4 - - -
28/04:30am 12.6 13.4 12.4 99 0.1 CALM 0 4 0 2 - - -
28/04:00am 12.5 12.5 12.3 99 0.1 SE 4 6 2 3 - - -
28/03:30am 12.5 12.1 12.3 99 0.1 S 6 9 3 5 - - -
28/03:00am 12.6 12.2 12.4 99 0.1 S 6 9 3 5 - - -
28/02:54am 12.7 12.2 12.5 99 0.1 SSE 7 9 4 5 - - -
28/02:52am 12.8 12.3 12.6 99 0.1 SSE 7 9 4 5 - - -
28/02:50am 12.8 12.3 12.6 99 0.1 SE 7 9 4 5 - - -
28/02:35am 12.7 12.2 12.5 99 0.1 SSE 7 9 4 5 - - -
28/02:30am 12.8 12.3 12.6 99 0.1 SSE 7 9 4 5 - - -
28/02:00am 13.5 13.8 13.3 99 0.1 ENE 4 6 2 3 - - -
28/01:30am 13.4 12.3 13.2 99 0.1 ENE 11 13 6 7 - - -
28/01:00am 13.5 13.2 13.3 99 0.1 NE 7 9 4 5 - - -
28/12:30am 13.6 13.0 13.4 99 0.1 ENE 9 11 5 6 - - -
28/12:00am 13.5 12.0 13.2 98 0.2 NE 13 17 7 9 - - -
 
Date/Time
WST
Temp
°C
App
Temp
°C
Dew
Point
Rel
Hum
%
Delta-T
°C
Wind Press
QNH
hPa
Press
MSL
hPa
Rain
since 9 am
mm
Dir
 
Spd
km/h
Gust
km/h
Spd
kts
Gust
kts
27/11:30pm 13.3 11.8 13.0 98 0.2 NE 13 17 7 9 - - -
27/11:00pm 13.5 12.4 13.2 98 0.2 NE 11 15 6 8 - - -
27/10:30pm 13.7 12.3 13.4 98 0.2 NE 13 15 7 8 - - -
27/10:00pm 14.0 13.5 13.7 98 0.2 ENE 9 13 5 7 - - -
27/09:30pm 14.3 13.9 14.0 98 0.2 NE 9 11 5 6 - - -
27/09:00pm 14.3 13.9 14.0 98 0.2 NE 9 13 5 7 - - -
27/08:30pm 14.0 13.1 13.7 98 0.2 NE 11 15 6 8 - - -
27/08:00pm 14.1 13.6 13.8 98 0.2 ENE 9 11 5 6 - - -
27/07:30pm 14.1 13.6 13.8 98 0.2 NE 9 11 5 6 - - -
27/07:00pm 14.6 14.6 14.1 97 0.3 ENE 7 9 4 5 - - -
27/06:30pm 15.0 14.2 14.0 94 0.6 NE 11 13 6 7 - - -
27/06:00pm 15.8 15.2 13.6 87 1.3 ENE 9 13 5 7 - - -
27/05:30pm 16.4 16.2 13.5 83 1.7 E 7 9 4 5 - - -
27/05:00pm 17.4 16.7 13.3 77 2.4 E 9 13 5 7 - - -
27/04:30pm 17.7 16.7 13.4 76 2.5 NE 11 13 6 7 - - -
27/04:00pm 17.6 16.3 13.7 78 2.3 NNE 13 19 7 10 - - -
27/03:30pm 18.4 17.9 12.6 69 3.3 ESE 7 13 4 7 - - -
27/03:00pm 18.3 17.7 13.4 73 2.8 ENE 9 13 5 7 - - -
27/02:30pm 18.0 17.0 13.5 75 2.6 NE 11 15 6 8 - - -
27/02:00pm 17.2 16.0 13.9 81 1.9 NE 13 20 7 11 - - -
27/01:30pm 17.1 16.5 13.4 79 2.1 NE 9 13 5 7 - - -
27/01:00pm 17.0 16.1 13.7 81 1.9 NE 11 17 6 9 - - -
27/12:30pm 17.6 16.4 13.9 79 2.2 ENE 13 19 7 10 - - -
27/12:12pm 17.4 16.7 14.3 82 1.8 ENE 11 15 6 8 - - -
27/12:00pm 16.9 16.5 14.0 83 1.7 ESE 9 15 5 8 - - -
27/11:45am 17.3 17.2 14.0 81 1.9 E 7 13 4 7 - - -
27/11:42am 17.1 17.0 14.0 82 1.8 E 7 13 4 7 - - -
27/11:30am 16.8 16.4 14.1 84 1.6 ESE 9 11 5 6 - - -
27/11:00am 16.0 16.2 14.7 92 0.8 ESE 7 9 4 5 - - -
27/10:30am 14.9 15.1 14.6 98 0.2 SE 7 9 4 5 - - -
27/10:00am 13.7 13.7 13.5 99 0.1 S 6 7 3 4 - - -
27/09:36am 13.2 14.1 13.0 99 0.1 CALM 0 0 0 0 - - -
27/09:30am 12.9 13.7 12.7 99 0.1 CALM 0 2 0 1 - - -
27/09:00am 12.1 11.6 11.9 99 0.1 SSE 6 7 3 4 - - -
27/08:30am 11.4 10.1 11.2 99 0.1 S 9 11 5 6 - - -
27/08:00am 11.2 9.8 11.0 99 0.1 S 9 15 5 8 - - -
27/07:30am 10.7 9.8 10.5 99 0.1 S 6 9 3 5 - - -
27/07:00am 10.4 8.8 10.2 99 0.1 S 9 13 5 7 - - -
27/06:52am 10.2 8.5 10.0 99 0.1 S 9 15 5 8 - - -
27/06:50am 10.3 8.7 10.1 99 0.1 S 9 15 5 8 - - -
27/06:30am 10.3 9.2 10.1 99 0.1 SW 6 7 3 4 - - -
27/06:22am 10.4 9.4 10.2 99 0.1 SW 6 7 3 4 - - -
27/06:00am 10.6 10.8 10.4 99 0.1 CALM 0 0 0 0 - - -
27/05:59am 10.7 10.9 10.5 99 0.1 CALM 0 0 0 0 - - -
27/05:39am 10.9 11.1 10.7 99 0.1 CALM 0 0 0 0 - - -
27/05:30am 11.0 11.3 10.8 99 0.1 CALM 0 0 0 0 - - -
27/05:12am 11.2 11.5 11.0 99 0.1 CALM 0 0 0 0 - - -
27/05:00am 11.1 11.4 10.9 99 0.1 CALM 0 0 0 0 - - -
27/04:30am 11.0 11.3 10.8 99 0.1 CALM 0 0 0 0 - - -
27/04:00am 10.9 11.1 10.7 99 0.1 CALM 0 0 0 0 - - -
27/03:40am 11.0 11.3 10.8 99 0.1 CALM 0 0 0 0 - - -
27/03:32am 10.9 11.1 10.7 99 0.1 CALM 0 0 0 0 - - -
27/03:30am 10.8 11.0 10.6 99 0.1 CALM 0 0 0 0 - - -
27/03:15am 10.4 10.5 10.2 99 0.1 CALM 0 0 0 0 - - -
27/03:07am 10.3 10.4 10.1 99 0.1 CALM 0 0 0 0 - - -
27/03:00am 10.4 10.5 10.2 99 0.1 CALM 0 0 0 0 - - -
27/02:50am 10.1 10.1 9.9 99 0.1 CALM 0 0 0 0 - - -
27/02:30am 10.3 10.4 10.1 99 0.1 CALM 0 0 0 0 - - -
27/02:00am 10.8 11.0 10.6 99 0.1 CALM 0 0 0 0 - - -
27/01:34am 11.4 11.8 11.2 99 0.1 CALM 0 0 0 0 - - -
27/01:30am 11.7 12.2 11.5 99 0.1 CALM 0 0 0 0 - - -
27/01:00am 12.5 12.1 12.3 99 0.1 S 6 7 3 4 - - -
27/12:30am 13.0 13.9 12.8 99 0.1 CALM 0 6 0 3 - - -
27/12:00am 13.6 12.6 13.4 99 0.1 N 11 15 6 8 - - -
 
Date/Time
WST
Temp
°C
App
Temp
°C
Dew
Point
Rel
Hum
%
Delta-T
°C
Wind Press
QNH
hPa
Press
MSL
hPa
Rain
since 9 am
mm
Dir
 
Spd
km/h
Gust
km/h
Spd
kts
Gust
kts
26/11:30pm 13.1 13.3 12.9 99 0.1 NNW 4 6 2 3 - - -
26/11:00pm 13.5 12.8 13.3 99 0.1 NNW 9 11 5 6 - - -
26/10:30pm 14.0 13.1 13.7 98 0.2 N 11 15 6 8 - - -
26/10:00pm 14.4 13.6 14.1 98 0.2 N 11 15 6 8 - - -
26/09:30pm 14.6 13.1 14.3 98 0.2 N 15 20 8 11 - - -
26/09:00pm 14.7 14.0 14.4 98 0.2 N 11 15 6 8 - - -
26/08:30pm 15.1 14.1 14.6 97 0.3 N 13 15 7 8 - - -
26/08:00pm 15.6 14.3 14.8 95 0.5 N 15 20 8 11 - - -
26/07:30pm 16.2 15.6 14.6 90 0.9 N 11 17 6 9 - - -
26/07:00pm 16.7 16.4 14.5 87 1.3 N 9 13 5 7 - - -
26/06:30pm 17.0 16.6 14.1 83 1.7 NNE 9 13 5 7 - - -
26/06:00pm 17.6 16.8 11.8 69 3.3 E 7 11 4 6 - - -
26/05:30pm 18.3 17.5 10.9 62 4.1 ESE 6 7 3 4 - - -
26/05:00pm 19.2 17.9 9.9 55 5.1 ESE 7 9 4 5 - - -
26/04:30pm 19.8 18.4 9.7 52 5.5 ENE 7 9 4 5 - - -
26/04:00pm 20.1 18.8 9.1 49 6.0 E 6 9 3 5 - - -
26/03:30pm 19.9 18.5 9.5 51 5.7 SE 7 11 4 6 - - -
26/03:00pm 20.2 18.8 9.5 50 5.8 SSE 7 11 4 6 - - -
26/02:30pm 19.7 18.9 10.9 57 4.9 ESE 6 11 3 6 - - -
26/02:00pm 20.0 19.3 11.5 58 4.8 ESE 6 9 3 5 - - -
26/01:30pm 19.1 18.8 12.6 66 3.7 S 6 9 3 5 - - -
26/01:00pm 18.4 17.8 12.4 68 3.4 SE 7 11 4 6 - - -
26/12:30pm 18.1 18.0 13.2 73 2.8 SSE 6 9 3 5 - - -
26/12:00pm 18.4 18.4 14.1 76 2.5 E 7 11 4 6 - - -
26/11:44am 17.8 18.1 15.1 84 1.6 NNE 7 11 4 6 - - -
26/11:30am 17.0 16.8 13.7 81 1.9 NNE 7 11 4 6 - - -
26/11:00am 16.2 17.3 15.6 96 0.4 NNW 4 9 2 5 - - -
26/10:30am 15.7 17.1 15.4 98 0.2 W 2 6 1 3 - - -
26/10:00am 14.7 14.0 14.4 98 0.2 N 11 15 6 8 - - -
26/09:30am 14.3 14.5 14.1 99 0.1 N 6 9 3 5 - - -
26/09:00am 13.9 13.4 13.7 99 0.1 N 9 13 5 7 - - -
26/08:49am 13.8 13.2 13.6 99 0.1 N 9 13 5 7 - - -
26/08:30am 13.6 13.0 13.4 99 0.1 N 9 11 5 6 - - -
26/08:00am 13.4 13.3 13.2 99 0.1 NNE 6 9 3 5 - - -
26/07:30am 13.0 12.7 12.8 99 0.1 NNE 6 7 3 4 - - -
26/07:00am 12.7 12.3 12.5 99 0.1 NNE 6 7 3 4 - - -
26/06:30am 12.2 12.8 12.0 99 0.1 CALM 0 0 0 0 - - -
26/06:00am 12.0 11.4 11.8 99 0.1 N 6 9 3 5 - - -
26/05:30am 11.8 11.9 11.6 99 0.1 NNW 2 6 1 3 - - -
26/05:00am 12.0 11.2 11.8 99 0.1 NNW 7 9 4 5 - - -
26/04:30am 12.2 11.5 12.0 99 0.1 NNW 7 9 4 5 - - -
26/04:00am 12.3 11.6 12.1 99 0.1 N 7 9 4 5 - - -
26/03:30am 12.3 11.8 12.1 99 0.1 NNE 6 7 3 4 - - -
26/03:00am 12.0 11.2 11.8 99 0.1 NE 7 9 4 5 - - -
26/02:30am 11.9 11.3 11.7 99 0.1 ENE 6 7 3 4 - - -
26/02:00am 12.2 11.7 12.0 99 0.1 NE 6 9 3 5 - - -
26/01:30am 12.3 11.6 12.1 99 0.1 NE 7 11 4 6 - - -
26/01:00am 12.6 12.6 12.4 99 0.1 NE 4 7 2 4 - - -
26/12:30am 12.9 12.4 12.7 99 0.1 ENE 7 9 4 5 - - -
26/12:00am 12.8 11.5 12.6 99 0.1 NE 11 15 6 8 - - -
 
Date/Time
WST
Temp
°C
App
Temp
°C
Dew
Point
Rel
Hum
%
Delta-T
°C
Wind Press
QNH
hPa
Press
MSL
hPa
Rain
since 9 am
mm
Dir
 
Spd
km/h
Gust
km/h
Spd
kts
Gust
kts
25/11:54pm 12.7 11.4 12.5 99 0.1 NE 11 15 6 8 - - -
25/11:44pm 12.3 10.5 12.1 99 0.1 NE 13 15 7 8 - - -
25/11:30pm 12.3 10.9 12.1 99 0.1 NE 11 13 6 7 - - -
25/11:00pm 12.7 11.4 12.5 99 0.1 NE 11 15 6 8 - - -
25/10:41pm 12.9 12.0 12.7 99 0.1 NE 9 13 5 7 - - -
25/10:36pm 12.9 12.0 12.7 99 0.1 NE 9 11 5 6 - - -
25/10:30pm 12.8 11.9 12.6 99 0.1 NE 9 11 5 6 - - -
25/10:00pm 12.8 11.9 12.6 99 0.1 NE 9 11 5 6 - - -
25/09:30pm 12.9 12.0 12.6 98 0.2 NE 9 11 5 6 - - -
25/09:00pm 13.0 12.1 12.7 98 0.2 NE 9 11 5 6 - - -
25/08:30pm 13.4 12.7 13.1 98 0.2 NE 9 11 5 6 - - -
25/08:00pm 13.9 13.3 13.4 97 0.3 ENE 9 11 5 6 - - -
25/07:30pm 14.4 13.8 13.6 95 0.5 NE 9 11 5 6 - - -
25/07:00pm 14.9 14.2 13.3 90 0.9 NE 9 11 5 6 - - -
25/06:30pm 15.8 15.0 12.9 83 1.6 ENE 9 11 5 6 - - -

Other Formats:

Comma delimited format used in spreadsheet applications
http://www.bom.gov.au/fwo/IDW60801/IDW60801.95448.axf

JavaScript Object Notation format (JSON) in row-major order
http://www.bom.gov.au/fwo/IDW60801/IDW60801.95448.json